Jersey, United Kingdom
Current Conditions -  °F | °C
As of 10:50 AM on Wednesday 22 Oct 2014 (Local Time) from EGJJ Reporting Station
Broken Clouds Broken Clouds  
Wind Chill: 57°   Ceiling: 4000
Heat Index: 57°   Visibility: 6mi
Dew Point: 46°   Wind: 14mph
Humidity: 67%   Direction: 310°NW
Pressure: 30.39"   Gusts: NA
Location:  49.21°N, 2.13°W
Report Text: EGJJ 220950Z 31012KT 9999 FEW030 BKN040 14/08 Q1029 NOSIG
Loading
Personal Weather Stations






























Interactive Weather Map
Tropical Storm Tracking
New forecast layout! Learn more

10-Day Weather Forecast

Advertisements
Track Severe Weather on mobile